Time;durP1;ratioP1;P1;durP2;ratioP2;P2;SDS_P1;SDS_P2;PMS_P1;PMS_P2;Temp;Humidity;BMP_temperature;BMP_pressure;BME280_temperature;BME280_humidity;BME280_pressure;Samples;Min_cycle;Max_cycle;Signal;HPM_P1;HPM_P2
2023/03/22 00:00:35;;;;;;;11.50;6.40;;;;;;;12.02;75.83;99345.81;5069476;28;20435;-87
2023/03/22 00:03:00;;;;;;;3.75;3.40;;;;;;;11.93;76.40;99366.28;5062890;28;20032;-88
2023/03/22 00:05:26;;;;;;;;;;;;;;;12.21;76.69;99402.59;5034496;28;20403;-87
2023/03/22 00:07:53;;;;;;;5.43;4.90;;;;;;;11.97;76.50;99345.91;5051842;28;20369;-87
2023/03/22 00:10:19;;;;;;;6.57;5.63;;;;;;;12.11;76.79;99382.56;5049814;28;20033;-87
2023/03/22 00:12:45;;;;;;;9.25;8.45;;;;;;;11.93;77.20;99365.44;5052365;28;20123;-89
2023/03/22 00:15:14;;;;;;;10.07;7.43;;;;;;;11.96;76.96;99362.72;5051993;28;20029;-89
2023/03/22 00:17:40;;;;;;;5.72;4.65;;;;;;;11.67;77.61;99329.94;5051822;28;20463;-88
2023/03/22 00:20:06;;;;;;;11.55;6.70;;;;;;;11.87;77.96;99357.63;5046944;28;20124;-88
2023/03/22 00:22:31;;;;;;;;;;;;;;;12.13;78.01;99392.22;5071617;28;20115;-88
2023/03/22 00:24:57;;;;;;;7.07;6.43;;;;;;;12.21;77.21;99389.38;5071534;28;19999;-88
2023/03/22 00:27:23;;;;;;;;;;;;;;;12.24;77.75;99396.34;5063221;28;20063;-88
2023/03/22 00:29:52;;;;;;;12.23;6.60;;;;;;;12.08;77.56;99372.06;5051822;28;20339;-88
2023/03/22 00:32:17;;;;;;;8.52;5.55;;;;;;;11.80;77.80;99349.84;5051955;28;20044;-86
2023/03/22 00:34:42;;;;;;;;;;;;;;;11.71;79.33;99387.09;5052404;28;20087;-87
2023/03/22 00:37:08;;;;;;;;;;;;;;;11.47;80.78;99383.25;5051929;28;20473;-86
2023/03/22 00:39:33;;;;;;;8.70;7.68;;;;;;;11.25;81.92;99369.69;5051824;28;19912;-87
2023/03/22 00:41:58;;;;;;;;;;;;;;;11.33;81.82;99380.06;5067541;28;20033;-89
2023/03/22 00:44:24;;;;;;;;;;;;;;;11.53;81.29;99380.47;5051913;28;19912;-89
2023/03/22 00:46:49;;;;;;;6.55;4.90;;;;;;;11.42;80.20;99346.38;5067448;28;20007;-88
2023/03/22 00:49:14;;;;;;;;;;;;;;;11.72;79.50;99387.94;5052204;28;20059;-87
2023/03/22 00:51:40;;;;;;;;;;;;;;;11.41;80.14;99386.88;5051938;28;19995;-87
2023/03/22 00:54:05;;;;;;;7.97;7.27;;;;;;;11.29;80.52;99380.13;5043428;28;20384;-88
2023/03/22 00:56:32;;;;;;;;;;;;;;;11.05;81.40;99384.19;5053074;28;20377;-88
2023/03/22 00:58:58;;;;;;;8.40;7.53;;;;;;;10.67;82.45;99358.63;5055723;28;19962;-88
2023/03/22 01:01:23;;;;;;;;;;;;;;;10.80;82.54;99382.97;5059174;28;20448;-87
2023/03/22 01:03:49;;;;;;;8.27;7.40;;;;;;;10.30;83.44;99333.84;5052902;28;19927;-88
2023/03/22 01:06:15;;;;;;;;;;;;;;;10.44;84.54;99375.78;5051277;28;20138;-89
2023/03/22 01:08:40;;;;;;;4.05;3.70;;;;;;;10.20;85.35;99341.03;5051137;28;19916;-89
2023/03/22 01:11:07;;;;;;;;;;;;;;;10.19;86.11;99368.31;5038740;28;20041;-88
2023/03/22 01:13:33;;;;;;;6.30;4.97;;;;;;;10.12;86.16;99366.69;5069209;28;20401;-86
2023/03/22 01:15:58;;;;;;;7.20;5.40;;;;;;;10.06;86.86;99360.66;5068891;28;20583;-88
2023/03/22 01:18:24;;;;;;;;;;;;;;;10.10;87.33;99376.41;5070023;28;20064;-86
2023/03/22 01:20:50;;;;;;;;;;;;;;;10.15;87.81;99376.31;5069662;28;20291;-88
2023/03/22 01:23:15;;;;;;;4.97;4.50;;;;;;;10.09;87.48;99350.06;5070918;28;19923;-88
2023/03/22 01:25:40;;;;;;;;;;;;;;;10.49;86.48;99373.91;5067788;28;20029;-87
2023/03/22 01:28:06;;;;;;;;;;;;;;;10.69;85.66;99378.78;5065236;28;20011;-87
2023/03/22 01:30:32;;;;;;;4.28;3.88;;;;;;;10.23;85.78;99318.19;5050557;28;19913;-88
2023/03/22 01:32:57;;;;;;;;;;;;;;;10.62;86.18;99386.88;5050996;28;20033;-86
2023/03/22 01:35:22;;;;;;;;;;;;;;;10.57;86.45;99386.97;5050755;28;20462;-87
2023/03/22 01:37:48;;;;;;;6.53;4.78;;;;;;;10.32;87.51;99349.63;5050561;28;19916;-87
2023/03/22 01:40:14;;;;;;;;;;;;;;;10.41;88.07;99372.31;5051018;28;20033;-86
2023/03/22 01:42:39;;;;;;;;;;;;;;;10.53;88.14;99378.25;5049226;28;20307;-87
2023/03/22 01:45:15;;;;;;;8.95;5.63;;;;;;;10.56;87.84;99364.97;5050482;28;19913;-87
2023/03/22 01:47:53;;;;;;;8.13;6.50;;;;;;;10.02;89.49;99320.31;5030473;28;20034;-87
2023/03/22 01:50:20;;;;;;;5.22;4.05;;;;;;;10.15;90.01;99364.00;5044983;28;20127;-89
2023/03/22 01:52:47;;;;;;;5.50;5.00;;;;;;;9.92;90.55;99329.28;5050547;28;20024;-88
2023/03/22 01:55:12;;;;;;;8.30;7.47;;;;;;;9.97;91.19;99336.19;5050206;28;20037;-87
2023/03/22 01:57:39;;;;;;;;;;;;;;;10.37;90.79;99376.78;5060829;28;20024;-88
2023/03/22 02:00:12;;;;;;;14.45;5.80;;;;;;;10.19;90.24;99352.50;5068146;28;19920;-88
2023/03/22 02:02:37;;;;;;;4.97;4.55;;;;;;;10.15;89.65;99361.34;5069228;28;20127;-86
2023/03/22 02:05:03;;;;;;;;;;;;;;;10.30;89.85;99394.47;5070644;28;20042;-87
2023/03/22 02:07:30;;;;;;;5.35;4.90;;;;;;;10.33;89.71;99383.00;5070023;28;19970;-87
2023/03/22 02:09:57;;;;;;;8.63;7.03;;;;;;;10.23;88.79;99370.91;5070310;28;20427;-87
2023/03/22 02:12:50;;;;;;;9.50;6.50;;;;;;;10.16;88.56;99363.09;5068256;28;20029;-87
2023/03/22 02:15:22;;;;;;;3.53;3.22;;;;;;;10.19;88.25;99367.44;5069523;28;20032;-87
2023/03/22 02:17:58;;;;;;;13.45;8.98;;;;;;;10.39;88.94;99390.81;5085613;28;20116;-88
2023/03/22 02:21:02;;;;;;;7.78;6.95;;;;;;;10.34;89.50;99397.94;5068734;28;20143;-88
2023/03/22 02:24:08;;;;;;;10.43;8.77;;;;;;;10.08;90.12;99372.03;5007958;28;20073;-87
2023/03/22 02:27:11;;;;;;;5.55;5.07;;;;;;;10.33;89.40;99391.81;5017756;28;20038;-86
2023/03/22 02:29:51;;;;;;;11.57;8.57;;;;;;;10.42;88.30;99377.56;5026012;28;20065;-87
2023/03/22 02:32:35;;;;;;;4.35;4.00;;;;;;;10.43;88.74;99387.22;5023301;28;20053;-88
2023/03/22 02:35:22;;;;;;;4.18;3.88;;;;;;;10.54;88.40;99401.06;5008018;28;20038;-88
2023/03/22 02:38:18;;;;;;;6.03;4.35;;;;;;;10.75;87.43;99383.06;5007549;28;20129;-89
2023/03/22 02:41:09;;;;;;;8.18;6.82;;;;;;;10.87;86.36;99390.72;4991536;28;20471;-87
2023/03/22 02:43:40;;;;;;;12.05;10.77;;;;;;;10.93;85.61;99400.28;5003879;28;20049;-87
2023/03/22 02:46:29;;;;;;;9.40;8.13;;;;;;;10.59;85.25;99340.31;5008147;28;20038;-87
2023/03/22 02:49:27;;;;;;;7.97;6.57;;;;;;;10.83;85.55;99404.91;5016532;28;20053;-88
2023/03/22 02:52:21;;;;;;;3.90;3.42;;;;;;;10.81;85.06;99372.38;5026560;28;20042;-89
2023/03/22 02:54:59;;;;;;;6.40;5.80;;;;;;;10.64;86.33;99398.25;4952841;29;20079;-87
2023/03/22 02:57:55;;;;;;;7.10;5.93;;;;;;;10.39;87.16;99381.16;4961082;28;20477;-87
2023/03/22 03:00:20;;;;;;;8.35;7.00;;;;;;;10.46;87.37;99403.00;4954270;28;20048;-88
2023/03/22 03:02:51;;;;;;;;;;;;;;;10.42;87.70;99403.06;4970453;28;20035;-88
2023/03/22 03:05:19;;;;;;;5.30;4.90;;;;;;;10.19;87.71;99365.69;4975134;28;20308;-87
2023/03/22 03:07:49;;;;;;;19.20;7.18;;;;;;;10.31;89.12;99401.47;4973438;28;20073;-88
2023/03/22 03:10:18;;;;;;;5.05;4.65;;;;;;;10.09;88.80;99376.41;4970813;28;20031;-88
2023/03/22 03:12:43;;;;;;;11.23;8.45;;;;;;;10.31;89.38;99405.88;4976461;28;20043;-87
2023/03/22 03:15:13;;;;;;;;;;;;;;;10.38;89.18;99411.03;4974147;28;20061;-88
2023/03/22 03:18:10;;;;;;;5.22;4.68;;;;;;;10.32;88.05;99368.09;4976305;28;19952;-87
2023/03/22 03:20:41;;;;;;;14.48;8.90;;;;;;;10.41;88.55;99409.25;4970941;28;20029;-88
2023/03/22 03:23:13;;;;;;;5.15;4.68;;;;;;;10.25;88.51;99400.72;4958428;28;20147;-87
2023/03/22 03:25:56;;;;;;;6.60;5.75;;;;;;;10.01;89.98;99361.59;4953103;28;20044;-87
2023/03/22 03:28:42;;;;;;;10.57;8.80;;;;;;;9.92;90.74;99379.34;4968194;28;20043;-88
2023/03/22 03:31:10;;;;;;;;;;;;;;;10.21;90.37;99416.59;4990533;28;20036;-86
2023/03/22 03:33:47;;;;;;;7.35;5.70;;;;;;;10.02;90.95;99394.09;5072358;28;20363;-86
2023/03/22 03:36:16;;;;;;;7.00;5.55;;;;;;;10.02;91.48;99409.91;5071376;28;20391;-86
2023/03/22 03:38:47;;;;;;;4.25;3.45;;;;;;;9.92;91.56;99387.25;5075362;28;20028;-87
2023/03/22 03:41:20;;;;;;;7.57;4.18;;;;;;;10.17;91.99;99414.91;5072670;28;20104;-87
2023/03/22 03:43:47;;;;;;;8.10;7.03;;;;;;;10.18;90.82;99387.66;5073274;28;20055;-88
2023/03/22 03:46:13;;;;;;;7.32;5.78;;;;;;;10.21;90.08;99390.22;5072735;28;20033;-88
2023/03/22 03:48:43;;;;;;;7.97;5.72;;;;;;;10.44;90.38;99422.38;5072583;28;20035;-90
2023/03/22 03:51:09;;;;;;;6.43;3.45;;;;;;;10.43;89.27;99399.56;5071481;28;20025;-93
2023/03/22 03:53:34;;;;;;;;;;;;;;;10.74;88.65;99427.06;5070541;28;20055;-92
2023/03/22 03:55:59;;;;;;;6.80;6.10;;;;;;;10.43;88.24;99383.72;5059084;28;19925;-88
2023/03/22 03:58:25;;;;;;;;;;;;;;;10.81;87.85;99429.56;5034394;28;20454;-90
2023/03/22 04:00:51;;;;;;;6.68;4.07;;;;;;;10.51;87.69;99377.38;5041625;28;19923;-91
2023/03/22 04:03:16;;;;;;;;;;;;;;;10.90;87.29;99438.16;5069512;28;20483;-90
2023/03/22 04:05:42;;;;;;;7.82;5.45;;;;;;;10.45;88.97;99432.03;5072526;28;19970;-89
2023/03/22 04:08:08;;;;;;;6.82;6.07;;;;;;;10.17;89.40;99399.09;5071564;28;20519;-88
2023/03/22 04:10:33;;;;;;;;;;;;;;;10.52;90.11;99441.56;5073055;28;20025;-90
2023/03/22 04:12:58;;;;;;;;;;;;;;;10.66;89.30;99439.53;5062078;28;20045;-90
2023/03/22 04:15:24;;;;;;;6.55;5.40;;;;;;;10.51;89.76;99422.22;5042418;28;20376;-90
2023/03/22 04:17:52;;;;;;;;;;;;;;;10.85;88.29;99442.66;5032544;28;20456;-90
2023/03/22 04:20:18;;;;;;;5.65;5.20;;;;;;;10.59;88.56;99406.25;5044167;28;19913;-89
2023/03/22 04:22:45;;;;;;;;;;;;;;;10.74;88.62;99444.66;5049204;28;20506;-91
2023/03/22 04:25:16;;;;;;;8.43;7.00;;;;;;;10.77;88.63;99436.69;5049093;28;19952;-95
2023/03/22 04:27:59;;;;;;;7.80;6.47;;;;;;;10.36;88.24;99399.66;5045494;28;20045;-95
2023/03/22 04:30:26;;;;;;;;;;;;;;;10.74;89.13;99447.28;5044810;28;20025;-90
2023/03/22 04:36:38;;;;;;;5.55;5.05;;;;;;;10.55;87.45;99379.06;5066893;28;20071;-96
2023/03/22 04:39:08;;;;;;;6.97;4.95;;;;;;;10.79;87.32;99390.03;5053734;28;20066;-94
2023/03/22 04:41:34;;;;;;;5.13;4.68;;;;;;;10.96;86.77;99431.03;5049522;28;20102;-85
2023/03/22 04:44:03;;;;;;;3.65;3.38;;;;;;;10.90;87.04;99426.75;5045183;28;20462;-86
2023/03/22 04:46:30;;;;;;;9.98;5.43;;;;;;;10.91;86.43;99402.09;5041687;28;20507;-88
2023/03/22 04:48:56;;;;;;;6.05;5.20;;;;;;;10.70;88.47;99445.59;5048308;28;20082;-87
2023/03/22 04:51:21;;;;;;;;;;;;;;;10.61;90.05;99448.41;5050169;28;20470;-87
2023/03/22 04:53:47;;;;;;;7.43;4.07;;;;;;;10.36;90.12;99398.78;5048864;28;19935;-86
2023/03/22 04:56:13;;;;;;;;;;;;;;;10.68;90.08;99450.91;5065435;28;20040;-86
2023/03/22 04:58:40;;;;;;;4.38;3.97;;;;;;;10.56;89.39;99415.09;5048568;28;19920;-87
2023/03/22 05:01:08;;;;;;;7.75;6.75;;;;;;;10.48;89.67;99403.81;5050106;28;20032;-85
2023/03/22 05:03:35;;;;;;;8.75;6.30;;;;;;;10.60;90.20;99423.81;5065579;28;20145;-86
2023/03/22 05:06:02;;;;;;;9.85;5.43;;;;;;;10.74;89.47;99457.84;5067681;28;20032;-86
2023/03/22 05:08:29;;;;;;;6.20;5.28;;;;;;;10.45;91.20;99434.66;5068118;28;20123;-85
2023/03/22 05:10:57;;;;;;;4.93;4.35;;;;;;;10.83;90.39;99451.50;5070625;28;20064;-85
2023/03/22 05:13:24;;;;;;;6.05;4.75;;;;;;;11.03;89.45;99470.47;5058557;28;20033;-85
2023/03/22 05:15:50;;;;;;;6.95;4.63;;;;;;;10.78;89.93;99456.00;5050797;28;20044;-86
2023/03/22 05:18:19;;;;;;;3.92;3.63;;;;;;;10.55;90.38;99421.28;5050940;28;20418;-84
2023/03/22 05:20:45;;;;;;;7.63;5.13;;;;;;;11.22;88.88;99483.28;5049962;28;20025;-84
2023/03/22 05:23:12;;;;;;;7.35;5.40;;;;;;;11.09;87.93;99474.72;5072980;28;20049;-85
2023/03/22 05:25:38;;;;;;;8.73;7.40;;;;;;;10.93;88.33;99432.81;5030878;28;20033;-85
2023/03/22 05:28:04;;;;;;;11.10;6.28;;;;;;;11.08;88.03;99463.31;5041322;28;20056;-83
2023/03/22 05:30:31;;;;;;;4.80;3.92;;;;;;;11.14;88.15;99477.28;5050339;28;20040;-84
2023/03/22 05:32:58;;;;;;;7.65;5.65;;;;;;;11.18;87.50;99494.78;5060515;28;20213;-84
2023/03/22 05:35:25;;;;;;;9.20;5.95;;;;;;;10.52;88.25;99446.84;5046329;28;20083;-83
2023/03/22 05:37:51;;;;;;;8.35;6.93;;;;;;;10.73;88.80;99477.22;5050080;28;20027;-84
2023/03/22 05:40:16;;;;;;;;;;;;;;;11.05;88.67;99523.22;5050891;28;20033;-86
2023/03/22 05:42:43;;;;;;;8.35;6.63;;;;;;;10.78;89.02;99485.88;5049990;28;19925;-84
2023/03/22 05:45:09;;;;;;;7.22;5.93;;;;;;;10.78;88.25;99483.25;5049949;28;20029;-88
2023/03/22 05:47:38;;;;;;;7.63;6.88;;;;;;;10.96;87.69;99483.81;5020441;28;20144;-85
2023/03/22 05:50:05;;;;;;;13.45;6.25;;;;;;;11.23;87.91;99533.41;5008331;28;20088;-85
2023/03/22 05:52:31;;;;;;;9.95;7.30;;;;;;;11.17;86.84;99503.59;5004801;28;20473;-85
2023/03/22 05:54:56;;;;;;;6.90;6.20;;;;;;;10.90;87.47;99472.47;4996763;28;20044;-85
2023/03/22 05:57:22;;;;;;;;;;;;;;;11.17;87.74;99532.66;5011663;28;20113;-85
2023/03/22 05:59:47;;;;;;;;;;;;;;;11.09;89.32;99546.88;5007155;28;19914;-86
2023/03/22 06:02:12;;;;;;;4.97;3.23;;;;;;;10.49;90.03;99483.81;5001922;28;19944;-86
2023/03/22 06:04:40;;;;;;;;;;;;;;;10.87;90.20;99549.03;5011108;28;20042;-85
2023/03/22 06:07:06;;;;;;;5.28;4.82;;;;;;;10.59;89.60;99471.31;5011273;28;19960;-84
2023/03/22 06:09:32;;;;;;;4.25;3.58;;;;;;;10.74;89.53;99510.63;5011939;28;20022;-85
2023/03/22 06:11:57;;;;;;;;;;;;;;;11.24;89.27;99564.19;5010490;28;20030;-82
2023/03/22 06:14:23;;;;;;;5.03;4.57;;;;;;;11.12;88.75;99516.91;5010024;28;19914;-84
2023/03/22 06:16:48;;;;;;;;;;;;;;;11.47;88.49;99565.50;5041636;28;20052;-84
2023/03/22 06:19:14;;;;;;;;;;;;;;;11.54;88.36;99560.94;5011073;28;20363;-84
2023/03/22 06:21:39;;;;;;;6.65;4.75;;;;;;;11.13;89.08;99529.22;4997371;28;19972;-85
2023/03/22 06:24:05;;;;;;;;;;;;;;;11.35;89.56;99576.31;4998236;28;20041;-87
2023/03/22 06:26:30;;;;;;;;;;;;;;;11.56;88.44;99572.38;5002598;28;19913;-85
2023/03/22 06:28:55;;;;;;;6.60;4.60;;;;;;;11.12;89.65;99535.38;5007445;28;20455;-86
2023/03/22 06:31:21;;;;;;;;;;;;;;;11.40;90.11;99575.31;5010116;28;20280;-85
2023/03/22 06:33:46;;;;;;;6.07;5.47;;;;;;;11.11;90.17;99515.19;5009264;28;19914;-84
2023/03/22 06:36:11;;;;;;;;;;;;;;;11.41;89.66;99581.47;5010013;28;20084;-89
2023/03/22 06:38:37;;;;;;;9.02;8.10;;;;;;;11.04;90.12;99532.03;5009601;28;19979;-86
2023/03/22 06:41:02;;;;;;;;;;;;;;;11.09;92.26;99577.69;5010400;28;20107;-85
2023/03/22 06:43:28;;;;;;;7.75;6.82;;;;;;;10.80;92.33;99520.16;5009769;28;19913;-86
2023/03/22 06:45:53;;;;;;;;;;;;;;;11.28;91.88;99581.72;5041117;28;20919;-83
2023/03/22 06:48:19;;;;;;;;;;;;;;;10.90;94.59;99575.38;5010334;28;20075;-85
2023/03/22 06:50:44;;;;;;;7.43;6.68;;;;;;;10.84;94.44;99535.91;5009667;28;19918;-85
2023/03/22 06:53:09;;;;;;;;;;;;;;;11.24;93.76;99585.31;5010272;28;20092;-85
2023/03/22 06:55:35;;;;;;;;;;;;;;;11.32;93.37;99576.38;5009462;28;20375;-84
2023/03/22 06:58:01;;;;;;;3.58;3.28;;;;;;;10.69;95.94;99523.00;5008562;28;20330;-85
2023/03/22 07:00:26;;;;;;;;;;;;;;;10.85;97.62;99542.94;5009589;28;20033;-85
2023/03/22 07:02:52;;;;;;;3.88;3.55;;;;;;;10.60;97.76;99496.78;5010406;28;19917;-83
2023/03/22 07:05:17;;;;;;;;;;;;;;;10.87;98.90;99529.72;5011187;28;20400;-83
2023/03/22 07:07:43;;;;;;;;;;;;;;;10.61;99.37;99530.19;5010373;28;20303;-87
2023/03/22 07:10:08;;;;;;;14.18;7.32;;;;;;;10.46;100.00;99504.97;5010617;28;19913;-84
2023/03/22 07:12:34;;;;;;;;;;;;;;;10.46;100.00;99534.00;5010250;28;20456;-84
2023/03/22 07:14:59;;;;;;;10.32;9.40;;;;;;;10.43;100.00;99519.06;5009801;28;19917;-84
2023/03/22 07:17:24;;;;;;;;;;;;;;;10.84;100.00;99566.72;5008903;28;20041;-84
2023/03/22 07:19:50;;;;;;;10.15;7.13;;;;;;;10.71;98.94;99552.88;5010382;28;20016;-83
2023/03/22 07:22:15;;;;;;;;;;;;;;;10.88;98.89;99600.94;5010986;28;20038;-84
2023/03/22 07:24:41;;;;;;;5.20;4.75;;;;;;;10.45;99.44;99580.56;5010450;28;19921;-83
2023/03/22 07:27:06;;;;;;;;;;;;;;;10.57;100.00;99614.66;5011015;28;20030;-83
2023/03/22 07:29:32;;;;;;;5.25;4.75;;;;;;;10.32;100.00;99564.03;5009639;28;20368;-82
2023/03/22 07:31:57;;;;;;;;;;;;;;;10.65;99.78;99626.84;5009173;28;20038;-84
2023/03/22 07:34:23;;;;;;;6.95;6.43;;;;;;;10.42;99.55;99603.47;5012428;28;19963;-87
2023/03/22 07:36:48;;;;;;;;;;;;;;;10.72;98.44;99626.72;5012487;28;20080;-86
2023/03/22 07:39:14;;;;;;;7.68;6.10;;;;;;;10.91;96.58;99607.94;5013462;28;19917;-86
2023/03/22 07:41:39;;;;;;;;;;;;;;;11.19;94.21;99618.84;5014142;28;20120;-85
2023/03/22 07:44:05;;;;;;;6.88;5.75;;;;;;;11.41;93.20;99615.81;5012581;28;20279;-84
2023/03/22 07:46:31;;;;;;;8.63;7.78;;;;;;;11.08;92.23;99558.34;5013421;28;20034;-84
2023/03/22 07:48:56;;;;;;;;;;;;;;;11.55;92.13;99623.44;5013996;28;20378;-83
2023/03/22 07:51:22;;;;;;;6.78;6.07;;;;;;;11.51;90.87;99608.56;5013103;28;20362;-84
2023/03/22 07:53:47;;;;;;;;;;;;;;;11.43;91.70;99621.91;5013633;28;20038;-84
2023/03/22 07:56:12;;;;;;;;;;;;;;;11.35;93.13;99629.13;5013371;28;19913;-83
2023/03/22 07:58:39;;;;;;;4.85;4.45;;;;;;;10.85;95.03;99611.53;5012732;28;19920;-83
2023/03/22 08:01:07;;;;;;;15.02;9.38;;;;;;;10.72;96.45;99621.44;5012887;28;20116;-85
2023/03/22 08:03:35;;;;;;;6.75;5.70;;;;;;;10.96;96.17;99621.06;5012980;28;20018;-84
2023/03/22 08:06:05;;;;;;;5.95;5.07;;;;;;;10.54;97.29;99595.38;5012745;28;20033;-84
2023/03/22 08:08:31;;;;;;;6.28;5.57;;;;;;;10.92;97.32;99657.16;5013027;28;20030;-83
2023/03/22 08:10:56;;;;;;;;;;;;;;;11.03;96.84;99643.78;5012755;28;20481;-83
2023/03/22 08:13:22;;;;;;;4.22;3.88;;;;;;;10.67;96.46;99599.53;5012568;28;19913;-84
2023/03/22 08:15:47;;;;;;;;;;;;;;;10.93;97.11;99646.59;5013391;28;20034;-85
2023/03/22 08:18:13;;;;;;;8.48;5.85;;;;;;;10.69;96.82;99607.41;5013065;28;19913;-84
2023/03/22 08:20:38;;;;;;;;;;;;;;;11.15;95.92;99648.84;5013824;28;20025;-84
2023/03/22 08:23:04;;;;;;;;;;;;;;;11.44;94.27;99637.72;5013345;28;20008;-84
2023/03/22 08:25:31;;;;;;;4.40;3.92;;;;;;;11.08;93.49;99611.13;5012336;28;19936;-86
2023/03/22 08:27:58;;;;;;;5.32;4.82;;;;;;;11.31;94.04;99579.91;5011749;28;20037;-86
2023/03/22 08:30:23;;;;;;;7.40;6.13;;;;;;;11.51;92.46;99577.75;5012197;28;20566;-84
2023/03/22 08:32:49;;;;;;;;;;;;;;;11.98;90.37;99649.88;5013404;28;20026;-87
2023/03/22 08:35:14;;;;;;;4.85;4.13;;;;;;;11.76;89.45;99615.09;5012731;28;20356;-83
2023/03/22 08:37:40;;;;;;;;;;;;;;;11.80;89.51;99647.59;5012389;28;20092;-83
2023/03/22 08:40:08;;;;;;;4.75;4.32;;;;;;;11.71;89.71;99600.22;5012500;28;19913;-84
2023/03/22 08:42:34;;;;;;;6.30;5.70;;;;;;;11.96;89.94;99606.75;5043661;28;20474;-84
2023/03/22 08:44:59;;;;;;;;;;;;;;;12.50;89.15;99649.63;5011984;28;20121;-84
2023/03/22 08:47:25;;;;;;;9.10;7.63;;;;;;;12.24;89.31;99606.13;5011956;28;20011;-84
2023/03/22 08:49:50;;;;;;;;;;;;;;;12.76;87.85;99649.00;5012552;28;20034;-84
2023/03/22 08:52:15;;;;;;;6.40;5.68;;;;;;;12.45;87.23;99617.09;5012420;28;19917;-84
2023/03/22 08:54:41;;;;;;;;;;;;;;;12.61;86.61;99657.31;5012213;28;20092;-84
2023/03/22 08:57:08;;;;;;;;;;;;;;;12.56;87.08;99657.44;5012188;28;19967;-84
2023/03/22 08:59:34;;;;;;;10.05;7.25;;;;;;;12.51;86.49;99611.66;5011645;28;19919;-84
2023/03/22 09:02:00;;;;;;;8.60;6.95;;;;;;;12.42;86.71;99614.53;5012211;28;20049;-84
2023/03/22 09:04:26;;;;;;;;;;;;;;;12.84;86.71;99649.69;5012181;28;20033;-84
2023/03/22 09:06:51;;;;;;;7.38;6.22;;;;;;;12.51;87.49;99601.97;5011616;28;19917;-86
2023/03/22 09:09:16;;;;;;;;;;;;;;;12.98;87.38;99646.69;5012040;28;20037;-85
2023/03/22 09:11:42;;;;;;;6.18;5.57;;;;;;;12.63;87.23;99607.88;5011238;28;19928;-85
2023/03/22 09:14:09;;;;;;;9.80;6.88;;;;;;;12.84;87.56;99609.09;5011381;28;20481;-85
2023/03/22 09:16:34;;;;;;;10.35;8.40;;;;;;;12.95;88.55;99606.19;5011390;28;20030;-85
2023/03/22 09:19:01;;;;;;;;;;;;;;;12.99;91.76;99624.59;5010522;28;20496;-85
2023/03/22 09:21:28;;;;;;;5.97;5.40;;;;;;;13.15;91.73;99619.75;5011173;28;19928;-84
2023/03/22 09:23:54;;;;;;;11.52;8.75;;;;;;;13.07;89.46;99600.56;5011679;28;20140;-85
2023/03/22 09:26:21;;;;;;;9.80;6.80;;;;;;;12.85;91.14;99606.41;5011362;28;20085;-85
2023/03/22 09:28:47;;;;;;;7.50;5.65;;;;;;;12.54;90.60;99608.94;5012144;28;20028;-84
2023/03/22 09:31:12;;;;;;;;;;;;;;;12.94;90.77;99628.25;5011365;28;20038;-84
2023/03/22 09:33:40;;;;;;;4.03;3.72;;;;;;;12.25;90.46;99580.53;5011350;28;20330;-84
2023/03/22 09:36:06;;;;;;;28.30;5.18;;;;;;;12.31;88.30;99599.81;5011092;28;20029;-84
2023/03/22 09:38:34;;;;;;;8.35;6.97;;;;;;;12.39;89.37;99614.59;5011015;28;20144;-84
2023/03/22 09:41:04;;;;;;;7.53;6.43;;;;;;;13.29;87.55;99648.53;5011111;28;20137;-84
2023/03/22 09:43:36;;;;;;;10.02;6.80;;;;;;;13.63;86.42;99652.06;5011333;28;20037;-84
2023/03/22 09:46:05;;;;;;;12.70;8.38;;;;;;;13.73;86.27;99634.97;5010767;28;20030;-84
2023/03/22 09:48:34;;;;;;;10.80;7.75;;;;;;;13.67;87.17;99624.53;5011014;28;20497;-84
2023/03/22 09:51:02;;;;;;;14.95;9.77;;;;;;;13.33;86.00;99609.56;5010483;28;20159;-85
2023/03/22 09:53:30;;;;;;;9.57;7.32;;;;;;;13.30;87.26;99620.25;5010833;28;20033;-84
2023/03/22 09:56:06;;;;;;;10.82;8.88;;;;;;;13.55;85.24;99650.50;5011401;28;20404;-86
2023/03/22 09:58:38;;;;;;;15.13;11.77;;;;;;;13.77;86.72;99645.44;5012998;28;20057;-85
2023/03/22 10:01:30;;;;;;;9.32;8.02;;;;;;;13.95;87.94;99629.94;5012989;28;20449;-87
2023/03/22 10:04:03;;;;;;;11.98;10.68;;;;;;;14.02;86.90;99607.59;5013018;28;20518;-83
2023/03/22 10:06:30;;;;;;;22.73;14.00;;;;;;;14.30;86.56;99597.00;5011449;28;20034;-84
2023/03/22 10:09:05;;;;;;;17.33;11.75;;;;;;;14.65;87.07;99637.47;5007543;28;20053;-84
2023/03/22 10:12:04;;;;;;;14.68;9.32;;;;;;;14.49;83.40;99609.69;5005908;28;20042;-85
2023/03/22 10:14:37;;;;;;;9.38;8.40;;;;;;;14.09;83.06;99572.00;4999248;28;20115;-86
2023/03/22 10:17:09;;;;;;;13.90;10.55;;;;;;;14.66;83.50;99617.13;5010434;28;20503;-87
2023/03/22 10:20:07;;;;;;;11.88;8.82;;;;;;;14.76;81.47;99629.16;5009300;28;20037;-85
2023/03/22 10:22:37;;;;;;;8.23;7.43;;;;;;;14.65;82.74;99621.56;5009593;28;20061;-84
2023/03/22 10:25:05;;;;;;;9.52;6.88;;;;;;;14.57;81.94;99594.38;5009979;28;20341;-85
2023/03/22 10:27:33;;;;;;;13.75;7.90;;;;;;;14.63;77.33;99620.75;5004266;28;20061;-86
2023/03/22 10:30:07;;;;;;;6.95;6.28;;;;;;;14.04;80.59;99592.53;5002081;28;20420;-86
2023/03/22 10:32:44;;;;;;;9.90;8.82;;;;;;;14.06;81.30;99592.47;5008135;28;21283;-87
2023/03/22 10:35:14;;;;;;;9.27;7.10;;;;;;;14.23;83.63;99621.13;5006468;28;20125;-87
2023/03/22 10:37:42;;;;;;;7.45;6.75;;;;;;;13.78;79.32;99588.00;5008265;28;20045;-86
2023/03/22 10:40:18;;;;;;;6.97;5.55;;;;;;;13.72;78.85;99594.34;5009271;28;20030;-86
2023/03/22 10:42:51;;;;;;;7.63;5.22;;;;;;;13.74;78.36;99602.25;5004506;28;20034;-87
2023/03/22 10:45:19;;;;;;;10.15;4.97;;;;;;;14.24;80.67;99567.13;5009338;28;20026;-85
2023/03/22 10:48:06;;;;;;;6.50;6.00;;;;;;;14.38;76.86;99574.66;5005423;28;20501;-85
2023/03/22 10:50:35;;;;;;;7.45;5.13;;;;;;;14.49;70.71;99622.97;5006494;28;20064;-84
2023/03/22 10:53:11;;;;;;;7.22;4.80;;;;;;;14.63;73.04;99590.69;5008504;28;20026;-84
2023/03/22 10:55:42;;;;;;;7.80;5.93;;;;;;;14.76;73.47;99591.13;5010387;28;20034;-85
2023/03/22 10:58:13;;;;;;;9.07;7.20;;;;;;;15.08;73.92;99607.75;5010436;28;20029;-85
2023/03/22 11:01:03;;;;;;;10.60;6.70;;;;;;;15.23;72.99;99583.31;5010329;28;20180;-85
2023/03/22 11:03:38;;;;;;;10.70;5.22;;;;;;;15.58;71.92;99584.69;5010628;28;20633;-86
2023/03/22 11:06:13;;;;;;;10.57;6.78;;;;;;;15.85;72.81;99616.50;5008835;28;20044;-84
2023/03/22 11:08:40;;;;;;;8.40;5.60;;;;;;;15.37;70.71;99591.63;5012778;28;20379;-85
2023/03/22 11:11:13;;;;;;;10.13;5.57;;;;;;;15.28;70.50;99576.03;5014005;28;20549;-85
2023/03/22 11:13:39;;;;;;;7.28;5.85;;;;;;;15.83;71.71;99604.16;5013963;28;20026;-85
2023/03/22 11:16:05;;;;;;;7.75;5.45;;;;;;;15.95;73.01;99579.75;5013730;28;20030;-85
2023/03/22 11:18:33;;;;;;;10.70;8.07;;;;;;;15.90;69.05;99605.69;5013820;28;20033;-85
2023/03/22 11:21:06;;;;;;;7.88;5.80;;;;;;;15.61;68.13;99556.22;5013611;28;20527;-85
2023/03/22 11:23:34;;;;;;;7.25;5.50;;;;;;;15.84;68.69;99574.00;5013693;28;20062;-85
2023/03/22 11:26:29;;;;;;;8.65;5.60;;;;;;;15.92;69.33;99590.50;5013843;28;20409;-84
2023/03/22 11:29:01;;;;;;;;;;;;;;;16.29;69.78;99595.25;4992079;28;20100;-85
2023/03/22 11:31:27;;;;;;;9.18;6.13;;;;;;;16.09;67.20;99576.56;4991288;28;19918;-85
2023/03/22 11:33:58;;;;;;;8.55;5.28;;;;;;;15.15;66.99;99574.72;4991960;28;20500;-84
2023/03/22 11:36:25;;;;;;;6.97;5.47;;;;;;;15.40;69.58;99574.72;4992072;28;20050;-84
2023/03/22 11:39:04;;;;;;;8.90;5.22;;;;;;;15.49;66.89;99539.81;4992236;28;20034;-84
2023/03/22 11:41:34;;;;;;;9.40;5.35;;;;;;;16.03;65.71;99528.91;4975402;28;20402;-84
2023/03/22 11:44:04;;;;;;;20.45;7.13;;;;;;;16.38;68.54;99555.91;4991501;28;20081;-86
2023/03/22 11:46:30;;;;;;;8.32;7.43;;;;;;;16.64;68.29;99547.69;4991678;28;20046;-85
2023/03/22 11:49:03;;;;;;;7.25;4.65;;;;;;;16.75;65.69;99570.34;4991916;28;20068;-86
2023/03/22 11:51:36;;;;;;;9.15;3.55;;;;;;;16.77;62.62;99569.31;4991652;28;20030;-85
2023/03/22 11:54:12;;;;;;;6.70;4.90;;;;;;;16.38;63.71;99542.59;4991986;28;20237;-84
2023/03/22 11:56:44;;;;;;;9.48;7.90;;;;;;;16.79;61.79;99546.16;4991960;28;20030;-84
2023/03/22 11:59:20;;;;;;;6.00;4.82;;;;;;;16.52;61.02;99518.91;4991924;28;20104;-84
2023/03/22 12:01:53;;;;;;;5.07;4.38;;;;;;;16.65;62.12;99557.41;4991880;28;20159;-84
2023/03/22 12:04:25;;;;;;;6.75;5.30;;;;;;;16.18;62.96;99533.63;4991457;28;20531;-84